Time,TemperatureF,DewpointF,PressureIn,WindDirection,WindDirectionDegrees,WindSpeedMPH,WindSpeedGustMPH,Humidity,HourlyPrecipIn,Conditions,Clouds,dailyrainin,SoftwareType,DateUTC
2013-01-15 00:01:00,30.2,30.2,29.97,NW,309,6.7,48.3,100,0.00,,,0.00,VWS V13.01,2013-01-15 05:01:00,
2013-01-15 00:02:00,30.2,30.2,29.97,NNW,338,6.0,48.3,100,0.00,,,0.00,VWS V13.01,2013-01-15 05:02:00,
2013-01-15 00:03:00,30.2,30.2,29.97,NNW,330,0.0,48.3,100,0.00,,,0.00,VWS V13.01,2013-01-15 05:03:00,
2013-01-15 00:07:00,30.2,30.2,29.97,North,10,3.4,48.3,100,0.00,,,0.00,VWS V13.01,2013-01-15 05:07:00,
2013-01-15 00:12:00,31.1,31.1,30.00,North,353,4.7,48.3,100,0.00,,,0.00,VWS V13.01,2013-01-15 05:12:00,
2013-01-15 00:17:00,31.1,31.1,30.00,NNW,345,8.7,48.3,100,0.00,,,0.00,VWS V13.01,2013-01-15 05:17:00,
2013-01-15 00:22:00,31.1,31.1,30.00,North,3,4.0,48.3,100,0.00,,,0.00,VWS V13.01,2013-01-15 05:22:00,
2013-01-15 00:27:00,30.9,30.9,30.00,North,357,0.0,48.3,100,0.00,,,0.00,VWS V13.01,2013-01-15 05:27:00,
2013-01-15 00:32:00,30.9,30.9,30.00,North,357,0.0,48.3,100,0.00,,,0.00,VWS V13.01,2013-01-15 05:32:00,
2013-01-15 00:37:00,30.7,30.7,30.00,NW,318,4.0,48.3,100,0.00,,,0.00,VWS V13.01,2013-01-15 05:37:00,
2013-01-15 00:42:00,30.7,30.7,30.00,North,2,4.7,48.3,100,0.00,,,0.00,VWS V13.01,2013-01-15 05:42:00,
2013-01-15 00:47:00,30.7,30.7,30.00,North,353,0.0,48.3,100,0.00,,,0.00,VWS V13.01,2013-01-15 05:47:00,
2013-01-15 00:52:00,30.9,30.9,30.00,NNE,13,6.0,48.3,100,0.00,,,0.00,VWS V13.01,2013-01-15 05:52:00,
2013-01-15 00:57:00,30.9,30.9,30.00,North,353,9.4,48.3,100,0.00,,,0.00,VWS V13.01,2013-01-15 05:57:00,
2013-01-15 01:02:00,31.1,31.1,30.00,NNE,16,4.7,48.3,100,0.00,,,0.00,VWS V13.01,2013-01-15 06:02:00,
2013-01-15 01:07:00,30.9,30.9,30.00,North,353,4.0,48.3,100,0.00,,,0.00,VWS V13.01,2013-01-15 06:07:00,
2013-01-15 01:12:00,30.6,30.6,30.00,NNE,17,4.7,48.3,100,0.00,,,0.00,VWS V13.01,2013-01-15 06:12:00,
2013-01-15 01:17:00,30.2,30.2,30.00,NE,38,3.4,48.3,100,0.00,,,0.00,VWS V13.01,2013-01-15 06:17:00,
2013-01-15 01:22:00,30.0,30.0,30.00,NNE,21,3.4,48.3,100,0.00,,,0.00,VWS V13.01,2013-01-15 06:22:00,
2013-01-15 01:27:00,29.8,29.8,30.00,North,4,5.4,48.3,100,0.00,,,0.00,VWS V13.01,2013-01-15 06:27:00,
2013-01-15 01:32:00,29.7,29.7,30.00,North,11,5.4,48.3,100,0.00,,,0.00,VWS V13.01,2013-01-15 06:32:00,
2013-01-15 01:38:00,29.5,29.5,30.00,NNW,345,0.0,48.3,100,0.00,,,0.00,VWS V13.01,2013-01-15 06:38:00,
2013-01-15 01:43:00,29.1,29.1,30.00,NNW,332,0.0,48.3,100,0.00,,,0.00,VWS V13.01,2013-01-15 06:43:00,
2013-01-15 01:48:00,29.1,29.1,30.00,NNW,345,0.0,48.3,100,0.00,,,0.00,VWS V13.01,2013-01-15 06:48:00,
2013-01-15 01:53:00,29.5,29.5,30.00,NNE,22,4.0,48.3,100,0.00,,,0.00,VWS V13.01,2013-01-15 06:53:00,
2013-01-15 01:58:00,29.3,29.3,30.00,North,349,0.0,48.3,100,0.00,,,0.00,VWS V13.01,2013-01-15 06:58:00,
2013-01-15 02:03:00,28.9,28.9,30.00,North,357,5.4,48.3,100,0.00,,,0.00,VWS V13.01,2013-01-15 07:03:00,
2013-01-15 02:08:00,28.8,28.8,30.00,NNW,332,4.7,48.3,100,0.00,,,0.00,VWS V13.01,2013-01-15 07:08:00,
2013-01-15 02:13:00,28.6,28.6,30.00,North,353,0.0,48.3,100,0.00,,,0.00,VWS V13.01,2013-01-15 07:13:00,
2013-01-15 02:18:00,28.9,28.9,30.00,North,2,4.0,48.3,100,0.00,,,0.00,VWS V13.01,2013-01-15 07:18:00,
2013-01-15 02:23:00,28.9,28.9,30.00,North,2,0.0,48.3,100,0.00,,,0.00,VWS V13.01,2013-01-15 07:23:00,
2013-01-15 02:28:00,29.3,29.3,30.00,North,0,8.7,48.3,100,0.00,,,0.00,VWS V13.01,2013-01-15 07:28:00,
2013-01-15 02:33:00,29.1,29.1,30.00,North,4,6.0,48.3,100,0.00,,,0.00,VWS V13.01,2013-01-15 07:33:00,
2013-01-15 02:38:00,29.3,29.3,30.00,North,357,4.0,48.3,100,0.00,,,0.00,VWS V13.01,2013-01-15 07:38:00,
2013-01-15 02:43:00,29.5,29.5,30.00,North,2,8.7,48.3,100,0.00,,,0.00,VWS V13.01,2013-01-15 07:43:00,
2013-01-15 02:48:00,29.5,29.5,30.00,NNE,21,4.7,48.3,100,0.00,,,0.00,VWS V13.01,2013-01-15 07:48:00,
2013-01-15 02:53:00,29.5,27.5,30.00,NNE,20,8.1,48.3,92,0.00,,,0.00,VWS V13.01,2013-01-15 07:53:00,
2013-01-15 02:58:00,29.5,27.5,30.00,NNE,24,3.4,48.3,92,0.00,,,0.00,VWS V13.01,2013-01-15 07:58:00,
2013-01-15 03:03:00,29.5,27.5,30.00,North,9,6.7,48.3,92,0.00,,,0.00,VWS V13.01,2013-01-15 08:03:00,
2013-01-15 03:08:00,29.3,27.3,30.00,North,7,8.1,48.3,92,0.00,,,0.00,VWS V13.01,2013-01-15 08:08:00,
2013-01-15 03:13:00,29.3,27.3,30.00,North,353,4.0,48.3,92,0.00,,,0.00,VWS V13.01,2013-01-15 08:13:00,
2013-01-15 03:18:00,29.3,27.3,30.00,NNE,12,4.0,48.3,92,0.00,,,0.00,VWS V13.01,2013-01-15 08:18:00,
2013-01-15 03:23:00,29.1,27.1,30.00,NE,38,6.0,48.3,92,0.00,,,0.00,VWS V13.01,2013-01-15 08:23:00,
2013-01-15 03:28:00,28.8,26.7,30.00,North,8,0.0,48.3,92,0.00,,,0.00,VWS V13.01,2013-01-15 08:28:00,
2013-01-15 03:34:00,28.6,26.6,30.00,NNW,346,7.4,48.3,92,0.00,,,0.00,VWS V13.01,2013-01-15 08:34:00,
2013-01-15 03:39:00,28.0,26.0,30.00,North,4,0.0,48.3,92,0.00,,,0.00,VWS V13.01,2013-01-15 08:39:00,
2013-01-15 03:44:00,27.7,27.7,30.00,North,357,6.0,48.3,100,0.00,,,0.00,VWS V13.01,2013-01-15 08:44:00,
2013-01-15 03:49:00,27.7,25.7,30.00,NNE,33,5.4,48.3,92,0.00,,,0.00,VWS V13.01,2013-01-15 08:49:00,
2013-01-15 03:54:00,28.0,26.0,30.00,NNE,30,9.4,48.3,92,0.00,,,0.00,VWS V13.01,2013-01-15 08:54:00,
2013-01-15 03:59:00,27.9,25.8,30.00,NNE,31,4.7,48.3,92,0.00,,,0.00,VWS V13.01,2013-01-15 08:59:00,
2013-01-15 04:04:00,27.7,25.7,30.00,North,5,0.0,48.3,92,0.00,,,0.00,VWS V13.01,2013-01-15 09:04:00,
2013-01-15 04:09:00,27.5,25.5,30.00,North,5,0.0,48.3,92,0.00,,,0.00,VWS V13.01,2013-01-15 09:09:00,
2013-01-15 04:14:00,27.5,27.5,30.00,North,349,5.4,48.3,100,0.00,,,0.00,VWS V13.01,2013-01-15 09:14:00,
2013-01-15 04:19:00,27.9,27.9,30.00,North,353,6.0,48.3,100,0.00,,,0.00,VWS V13.01,2013-01-15 09:19:00,
2013-01-15 04:24:00,27.9,27.9,30.00,North,357,4.7,48.3,100,0.00,,,0.00,VWS V13.01,2013-01-15 09:24:00,
2013-01-15 04:29:00,28.0,26.0,30.00,North,357,4.0,48.3,92,0.00,,,0.00,VWS V13.01,2013-01-15 09:29:00,
2013-01-15 04:34:00,28.0,28.0,30.00,NNE,25,0.0,48.3,100,0.00,,,0.00,VWS V13.01,2013-01-15 09:34:00,
2013-01-15 04:39:00,28.0,28.0,30.00,NNE,20,0.0,48.3,100,0.00,,,0.00,VWS V13.01,2013-01-15 09:39:00,
2013-01-15 04:44:00,28.0,28.0,30.00,NNE,28,4.0,48.3,100,0.00,,,0.00,VWS V13.01,2013-01-15 09:44:00,
2013-01-15 04:49:00,28.0,28.0,30.00,NNE,23,7.4,48.3,100,0.00,,,0.00,VWS V13.01,2013-01-15 09:49:00,
2013-01-15 04:54:00,28.0,28.0,30.00,NNE,24,6.0,48.3,100,0.00,,,0.00,VWS V13.01,2013-01-15 09:54:00,
2013-01-15 04:59:00,28.0,28.0,30.00,NNE,26,4.7,48.3,100,0.00,,,0.00,VWS V13.01,2013-01-15 09:59:00,
2013-01-15 05:04:00,27.9,27.9,30.00,NE,45,4.7,48.3,100,0.00,,,0.00,VWS V13.01,2013-01-15 10:04:00,
2013-01-15 05:09:00,27.5,27.5,30.00,ENE,70,4.7,48.3,100,0.00,,,0.00,VWS V13.01,2013-01-15 10:09:00,
2013-01-15 05:14:00,27.0,27.0,30.00,East,101,4.0,48.3,100,0.00,,,0.00,VWS V13.01,2013-01-15 10:14:00,
2013-01-15 05:19:00,26.8,26.8,30.00,SSE,159,8.1,48.3,100,0.00,,,0.00,VWS V13.01,2013-01-15 10:19:00,
2013-01-15 05:24:00,26.4,26.4,30.00,ESE,111,4.0,48.3,100,0.00,,,0.00,VWS V13.01,2013-01-15 10:24:00,
2013-01-15 05:29:00,26.4,26.4,30.00,East,100,7.4,48.3,100,0.00,,,0.00,VWS V13.01,2013-01-15 10:29:00,
2013-01-15 05:34:00,26.2,26.2,30.00,ESE,105,3.4,48.3,100,0.00,,,0.00,VWS V13.01,2013-01-15 10:34:00,
2013-01-15 05:39:00,26.2,26.2,30.00,ESE,105,0.0,48.3,100,0.00,,,0.00,VWS V13.01,2013-01-15 10:39:00,
2013-01-15 05:44:00,26.1,26.1,30.00,ESE,116,4.7,48.3,100,0.00,,,0.00,VWS V13.01,2013-01-15 10:44:00,
2013-01-15 05:49:00,26.1,26.1,30.00,East,97,0.0,48.3,100,0.00,,,0.00,VWS V13.01,2013-01-15 10:49:00,
2013-01-15 05:54:00,26.1,26.1,30.00,ESE,116,4.0,48.3,100,0.00,,,0.00,VWS V13.01,2013-01-15 10:54:00,
2013-01-15 06:00:00,25.9,25.9,30.00,SSE,152,0.0,48.3,100,0.00,,,0.00,VWS V13.01,2013-01-15 11:00:00,
2013-01-15 06:05:00,25.5,25.5,30.00,SE,144,0.0,48.3,100,0.00,,,0.00,VWS V13.01,2013-01-15 11:05:00,
2013-01-15 06:10:00,25.3,25.3,30.00,ESE,107,4.0,48.3,100,0.00,,,0.00,VWS V13.01,2013-01-15 11:10:00,
2013-01-15 06:15:00,25.3,25.3,30.00,ESE,110,0.0,48.3,100,0.00,,,0.00,VWS V13.01,2013-01-15 11:15:00,
2013-01-15 06:20:00,25.0,25.0,30.00,ESE,111,0.0,48.3,100,0.00,,,0.00,VWS V13.01,2013-01-15 11:20:00,
2013-01-15 06:25:00,24.6,24.6,30.03,ESE,111,0.0,48.3,100,0.00,,,0.00,VWS V13.01,2013-01-15 11:25:00,
2013-01-15 06:30:00,24.6,24.6,30.03,ESE,111,0.0,48.3,100,0.00,,,0.00,VWS V13.01,2013-01-15 11:30:00,
2013-01-15 06:35:00,24.4,24.4,30.03,ESE,111,0.0,48.3,100,0.00,,,0.00,VWS V13.01,2013-01-15 11:35:00,
2013-01-15 06:40:00,24.3,24.3,30.03,ESE,111,0.0,48.3,100,0.00,,,0.00,VWS V13.01,2013-01-15 11:40:00,
2013-01-15 06:45:00,23.9,23.9,30.03,ESE,111,0.0,48.3,100,0.00,,,0.00,VWS V13.01,2013-01-15 11:45:00,
2013-01-15 06:50:00,23.0,23.0,30.03,ESE,111,0.0,48.3,100,0.00,,,0.00,VWS V13.01,2013-01-15 11:50:00,
2013-01-15 06:55:00,22.3,22.3,30.03,ESE,111,0.0,48.3,100,0.00,,,0.00,VWS V13.01,2013-01-15 11:55:00,
2013-01-15 07:00:00,21.6,21.6,30.03,ESE,111,0.0,48.3,100,0.00,,,0.00,VWS V13.01,2013-01-15 12:00:00,
2013-01-15 07:05:00,22.1,22.1,30.03,NE,38,0.0,48.3,100,0.00,,,0.00,VWS V13.01,2013-01-15 12:05:00,
2013-01-15 07:10:00,21.7,21.7,30.03,NE,38,0.0,48.3,100,0.00,,,0.00,VWS V13.01,2013-01-15 12:10:00,
2013-01-15 07:15:00,21.7,21.7,30.03,East,93,0.0,48.3,100,0.00,,,0.00,VWS V13.01,2013-01-15 12:15:00,
2013-01-15 07:20:00,21.4,21.4,30.03,East,93,0.0,48.3,100,0.00,,,0.00,VWS V13.01,2013-01-15 12:20:00,
2013-01-15 07:25:00,21.6,21.6,30.03,NE,48,0.0,48.3,100,0.00,,,0.00,VWS V13.01,2013-01-15 12:25:00,
2013-01-15 07:30:00,21.0,21.0,30.03,NE,48,0.0,48.3,100,0.00,,,0.00,VWS V13.01,2013-01-15 12:30:00,
2013-01-15 07:35:00,21.6,21.6,30.03,NE,45,3.4,48.3,100,0.00,,,0.00,VWS V13.01,2013-01-15 12:35:00,
2013-01-15 07:40:00,21.9,21.9,30.06,NE,40,3.4,48.3,100,0.00,,,0.00,VWS V13.01,2013-01-15 12:40:00,
2013-01-15 07:45:00,21.9,21.9,30.06,NE,41,3.4,48.3,100,0.00,,,0.00,VWS V13.01,2013-01-15 12:45:00,
2013-01-15 07:50:00,21.6,21.6,30.06,NE,41,0.0,48.3,100,0.00,,,0.00,VWS V13.01,2013-01-15 12:50:00,
2013-01-15 07:55:00,21.9,21.9,30.06,NE,43,0.0,48.3,100,0.00,,,0.00,VWS V13.01,2013-01-15 12:55:00,
2013-01-15 08:00:00,22.3,22.3,30.06,NE,43,0.0,48.3,100,0.00,,,0.00,VWS V13.01,2013-01-15 13:00:00,
2013-01-15 08:05:00,23.9,23.9,30.06,NE,43,0.0,48.3,100,0.00,,,0.00,VWS V13.01,2013-01-15 13:05:00,
2013-01-15 08:10:00,24.1,24.1,30.06,NE,43,0.0,48.3,100,0.00,,,0.00,VWS V13.01,2013-01-15 13:10:00,
2013-01-15 08:15:00,23.7,23.7,30.06,NE,43,0.0,48.3,100,0.00,,,0.00,VWS V13.01,2013-01-15 13:15:00,
2013-01-15 08:20:00,23.9,23.9,30.06,NE,43,0.0,48.3,100,0.00,,,0.00,VWS V13.01,2013-01-15 13:20:00,
2013-01-15 08:26:00,24.1,24.1,30.06,NE,40,5.4,48.3,100,0.00,,,0.00,VWS V13.01,2013-01-15 13:26:00,
2013-01-15 08:31:00,24.3,24.3,30.06,NNE,26,4.7,48.3,100,0.00,,,0.00,VWS V13.01,2013-01-15 13:31:00,
2013-01-15 08:36:00,24.6,24.6,30.06,NNE,23,0.0,48.3,100,0.00,,,0.00,VWS V13.01,2013-01-15 13:36:00,
2013-01-15 08:41:00,25.0,24.0,30.06,NNE,32,0.0,48.3,96,0.00,,,0.00,VWS V13.01,2013-01-15 13:41:00,
2013-01-15 08:46:00,25.0,24.0,30.06,NNE,19,4.0,48.3,96,0.00,,,0.00,VWS V13.01,2013-01-15 13:46:00,
2013-01-15 08:51:00,25.3,24.4,30.06,NNE,20,0.0,48.3,96,0.00,,,0.00,VWS V13.01,2013-01-15 13:51:00,
2013-01-15 08:56:00,25.5,24.5,30.06,NE,44,0.0,48.3,96,0.00,,,0.00,VWS V13.01,2013-01-15 13:56:00,
2013-01-15 09:01:00,25.7,24.7,30.06,NE,44,3.4,48.3,96,0.00,,,0.00,VWS V13.01,2013-01-15 14:01:00,
2013-01-15 09:06:00,25.3,24.4,30.06,NE,47,4.0,48.3,96,0.00,,,0.00,VWS V13.01,2013-01-15 14:06:00,
2013-01-15 09:11:00,25.9,24.9,30.09,NNE,25,0.0,48.3,96,0.00,,,0.00,VWS V13.01,2013-01-15 14:11:00,
2013-01-15 09:16:00,25.5,24.5,30.09,NNE,22,4.7,48.3,96,0.00,,,0.00,VWS V13.01,2013-01-15 14:16:00,
2013-01-15 09:21:00,25.7,24.7,30.09,NNE,29,0.0,48.3,96,0.00,,,0.00,VWS V13.01,2013-01-15 14:21:00,
2013-01-15 09:26:00,25.7,24.7,30.09,North,7,4.0,48.3,96,0.00,,,0.00,VWS V13.01,2013-01-15 14:26:00,
2013-01-15 09:31:00,26.6,25.6,30.09,NNE,32,0.0,48.3,96,0.00,,,0.00,VWS V13.01,2013-01-15 14:31:00,
2013-01-15 09:36:00,26.4,25.4,30.09,NE,51,3.4,48.3,96,0.00,,,0.00,VWS V13.01,2013-01-15 14:36:00,
2013-01-15 09:41:00,26.2,25.3,30.09,NE,41,4.0,48.3,96,0.00,,,0.00,VWS V13.01,2013-01-15 14:41:00,
2013-01-15 09:46:00,26.8,24.8,30.09,NNE,32,4.7,48.3,92,0.00,,,0.00,VWS V13.01,2013-01-15 14:46:00,
2013-01-15 09:51:00,27.1,25.1,30.09,NNE,33,0.0,48.3,92,0.00,,,0.00,VWS V13.01,2013-01-15 14:51:00,
2013-01-15 09:56:00,27.9,25.8,30.09,NNE,33,0.0,48.3,92,0.00,,,0.00,VWS V13.01,2013-01-15 14:56:00,
2013-01-15 10:01:00,27.9,25.8,30.09,NE,35,0.0,48.3,92,0.00,,,0.00,VWS V13.01,2013-01-15 15:01:00,
2013-01-15 10:06:00,27.0,25.0,30.09,NE,38,5.4,48.3,92,0.00,,,0.00,VWS V13.01,2013-01-15 15:06:00,
2013-01-15 10:11:00,27.1,25.1,30.09,North,357,0.0,48.3,92,0.00,,,0.00,VWS V13.01,2013-01-15 15:11:00,
2013-01-15 10:16:00,28.9,26.9,30.09,NE,50,0.0,48.3,92,0.00,,,0.00,VWS V13.01,2013-01-15 15:16:00,
2013-01-15 10:21:00,30.7,28.7,30.09,NE,50,0.0,48.3,92,0.00,,,0.00,VWS V13.01,2013-01-15 15:21:00,
2013-01-15 10:26:00,31.1,25.7,30.09,NE,50,0.0,48.3,80,0.00,,,0.00,VWS V13.01,2013-01-15 15:26:00,
2013-01-15 10:31:00,30.9,25.5,30.09,NE,50,0.0,48.3,80,0.00,,,0.00,VWS V13.01,2013-01-15 15:31:00,
2013-01-15 10:36:00,30.7,25.3,30.09,NE,50,4.0,48.3,80,0.00,,,0.00,VWS V13.01,2013-01-15 15:36:00,
2013-01-15 10:41:00,31.8,26.4,30.06,NNE,25,0.0,48.3,80,0.00,,,0.00,VWS V13.01,2013-01-15 15:41:00,
2013-01-15 10:46:00,40.1,31.8,30.06,NNE,25,0.0,48.3,72,0.00,,,0.00,VWS V13.01,2013-01-15 15:46:00,
2013-01-15 10:51:00,37.0,30.2,30.06,South,182,4.0,48.3,76,0.00,,,0.00,VWS V13.01,2013-01-15 15:51:00,
2013-01-15 10:56:00,33.3,27.8,30.06,South,175,0.0,48.3,80,0.00,,,0.00,VWS V13.01,2013-01-15 15:56:00,
2013-01-15 11:01:00,32.0,26.5,30.06,SSW,194,5.4,48.3,80,0.00,,,0.00,VWS V13.01,2013-01-15 16:01:00,
2013-01-15 11:06:00,28.8,23.4,30.06,SSW,209,6.0,48.3,80,0.00,,,0.00,VWS V13.01,2013-01-15 16:06:00,
2013-01-15 11:12:00,28.8,23.4,30.06,South,185,4.0,48.3,80,0.00,,,0.00,VWS V13.01,2013-01-15 16:12:00,
2013-01-15 11:17:00,29.7,24.3,30.06,SSW,194,0.0,48.3,80,0.00,,,0.00,VWS V13.01,2013-01-15 16:17:00,
2013-01-15 11:22:00,29.3,23.9,30.06,SW,225,6.0,48.3,80,0.00,,,0.00,VWS V13.01,2013-01-15 16:22:00,
2013-01-15 11:27:00,29.7,24.3,30.03,WSW,254,4.0,48.3,80,0.00,,,0.00,VWS V13.01,2013-01-15 16:27:00,
2013-01-15 11:32:00,29.5,24.1,30.03,SW,232,4.7,48.3,80,0.00,,,0.00,VWS V13.01,2013-01-15 16:32:00,
2013-01-15 11:37:00,30.0,24.6,30.03,WSW,251,4.0,48.3,80,0.00,,,0.00,VWS V13.01,2013-01-15 16:37:00,
2013-01-15 11:42:00,29.5,24.1,30.03,SW,234,6.0,48.3,80,0.00,,,0.00,VWS V13.01,2013-01-15 16:42:00,
2013-01-15 11:47:00,30.0,24.6,30.03,West,271,5.4,48.3,80,0.00,,,0.00,VWS V13.01,2013-01-15 16:47:00,
2013-01-15 11:52:00,30.0,24.6,30.03,WSW,241,4.0,48.3,80,0.00,,,0.00,VWS V13.01,2013-01-15 16:52:00,
2013-01-15 11:57:00,29.8,24.4,30.03,WSW,248,3.4,48.3,80,0.00,,,0.00,VWS V13.01,2013-01-15 16:57:00,
2013-01-15 12:02:00,30.0,24.6,30.03,West,269,8.1,48.3,80,0.00,,,0.00,VWS V13.01,2013-01-15 17:02:00,
2013-01-15 12:07:00,29.5,24.1,30.03,West,270,3.4,48.3,80,0.00,,,0.00,VWS V13.01,2013-01-15 17:07:00,
2013-01-15 12:12:00,30.7,25.3,30.03,West,275,0.0,48.3,80,0.00,,,0.00,VWS V13.01,2013-01-15 17:12:00,
2013-01-15 12:17:00,29.7,24.3,30.03,SW,217,4.0,48.3,80,0.00,,,0.00,VWS V13.01,2013-01-15 17:17:00,
2013-01-15 12:22:00,29.7,24.3,30.03,SSW,211,0.0,48.3,80,0.00,,,0.00,VWS V13.01,2013-01-15 17:22:00,
2013-01-15 12:27:00,30.6,25.1,30.03,West,264,0.0,48.3,80,0.00,,,0.00,VWS V13.01,2013-01-15 17:27:00,
2013-01-15 12:32:00,30.4,25.0,30.03,West,259,3.4,48.3,80,0.00,,,0.00,VWS V13.01,2013-01-15 17:32:00,
2013-01-15 12:37:00,30.4,25.0,30.03,SW,234,6.0,48.3,80,0.00,,,0.00,VWS V13.01,2013-01-15 17:37:00,
2013-01-15 12:42:00,29.7,24.3,30.00,WSW,245,4.7,48.3,80,0.00,,,0.00,VWS V13.01,2013-01-15 17:42:00,
2013-01-15 12:47:00,29.8,24.4,30.00,WSW,253,5.4,48.3,80,0.00,,,0.00,VWS V13.01,2013-01-15 17:47:00,
2013-01-15 12:52:00,29.7,24.3,30.00,WSW,252,5.4,48.3,80,0.00,,,0.00,VWS V13.01,2013-01-15 17:52:00,
2013-01-15 12:57:00,29.7,24.3,30.00,SW,230,5.4,48.3,80,0.00,,,0.00,VWS V13.01,2013-01-15 17:57:00,
2013-01-15 13:02:00,29.8,24.4,30.00,SW,236,4.0,48.3,80,0.00,,,0.00,VWS V13.01,2013-01-15 18:02:00,
2013-01-15 13:07:00,30.7,25.3,30.00,WSW,239,0.0,48.3,80,0.00,,,0.00,VWS V13.01,2013-01-15 18:07:00,
2013-01-15 13:12:00,30.6,25.1,30.00,West,273,6.0,48.3,80,0.00,,,0.00,VWS V13.01,2013-01-15 18:12:00,
2013-01-15 13:17:00,31.1,25.7,30.00,West,277,0.0,48.3,80,0.00,,,0.00,VWS V13.01,2013-01-15 18:17:00,
2013-01-15 13:22:00,31.3,25.8,30.00,NW,317,4.7,48.3,80,0.00,,,0.00,VWS V13.01,2013-01-15 18:22:00,
2013-01-15 13:27:00,31.1,25.7,30.00,WSW,246,4.7,48.3,80,0.00,,,0.00,VWS V13.01,2013-01-15 18:27:00,
2013-01-15 13:32:00,30.6,25.1,30.00,WNW,298,8.1,48.3,80,0.00,,,0.00,VWS V13.01,2013-01-15 18:32:00,
2013-01-15 13:37:00,30.6,25.1,30.00,WNW,288,8.7,48.3,80,0.00,,,0.00,VWS V13.01,2013-01-15 18:37:00,
2013-01-15 13:42:00,30.6,25.1,30.00,West,270,5.4,48.3,80,0.00,,,0.00,VWS V13.01,2013-01-15 18:42:00,
2013-01-15 13:47:00,30.7,25.3,30.00,WNW,301,3.4,48.3,80,0.00,,,0.00,VWS V13.01,2013-01-15 18:47:00,
2013-01-15 13:52:00,30.7,25.3,30.00,West,273,8.1,48.3,80,0.00,,,0.00,VWS V13.01,2013-01-15 18:52:00,
2013-01-15 13:57:00,30.6,25.1,30.00,North,353,6.0,48.3,80,0.00,,,0.00,VWS V13.01,2013-01-15 18:57:00,
2013-01-15 14:02:00,29.8,24.4,30.00,NW,308,8.1,48.3,80,0.00,,,0.00,VWS V13.01,2013-01-15 19:02:00,
2013-01-15 14:07:00,30.2,24.8,30.00,NW,313,6.0,48.3,80,0.00,,,0.00,VWS V13.01,2013-01-15 19:07:00,
2013-01-15 14:13:00,30.4,25.0,30.00,NNW,342,6.0,48.3,80,0.00,,,0.00,VWS V13.01,2013-01-15 19:13:00,
2013-01-15 14:18:00,30.4,25.0,30.00,West,281,5.4,48.3,80,0.00,,,0.00,VWS V13.01,2013-01-15 19:18:00,
2013-01-15 14:23:00,30.2,24.8,30.00,West,280,0.0,48.3,80,0.00,,,0.00,VWS V13.01,2013-01-15 19:23:00,
2013-01-15 14:28:00,30.6,25.1,30.00,North,353,4.0,48.3,80,0.00,,,0.00,VWS V13.01,2013-01-15 19:28:00,
2013-01-15 14:33:00,30.2,24.8,30.00,NW,312,5.4,48.3,80,0.00,,,0.00,VWS V13.01,2013-01-15 19:33:00,
2013-01-15 14:38:00,30.4,25.0,30.00,NW,321,5.4,48.3,80,0.00,,,0.00,VWS V13.01,2013-01-15 19:38:00,
2013-01-15 14:43:00,29.8,24.4,30.00,NW,312,11.4,48.3,80,0.00,,,0.00,VWS V13.01,2013-01-15 19:43:00,
2013-01-15 14:48:00,29.8,24.4,30.00,NW,314,5.4,48.3,80,0.00,,,0.00,VWS V13.01,2013-01-15 19:48:00,
2013-01-15 14:53:00,30.0,24.6,30.00,NW,320,4.7,48.3,80,0.00,,,0.00,VWS V13.01,2013-01-15 19:53:00,
2013-01-15 14:58:00,29.7,24.3,30.00,NNW,336,9.4,48.3,80,0.00,,,0.00,VWS V13.01,2013-01-15 19:58:00,
2013-01-15 15:03:00,30.0,24.6,30.00,WNW,301,6.0,48.3,80,0.00,,,0.00,VWS V13.01,2013-01-15 20:03:00,
2013-01-15 15:08:00,29.7,24.3,30.00,NW,323,5.4,48.3,80,0.00,,,0.00,VWS V13.01,2013-01-15 20:08:00,
2013-01-15 15:13:00,29.7,24.3,29.97,WNW,302,8.1,48.3,80,0.00,,,0.00,VWS V13.01,2013-01-15 20:13:00,
2013-01-15 15:18:00,29.5,24.1,29.97,West,276,9.4,48.3,80,0.00,,,0.00,VWS V13.01,2013-01-15 20:18:00,
2013-01-15 15:23:00,29.7,24.3,29.97,NW,312,5.4,48.3,80,0.00,,,0.00,VWS V13.01,2013-01-15 20:23:00,
2013-01-15 15:28:00,29.7,24.3,29.97,WNW,300,4.0,48.3,80,0.00,,,0.00,VWS V13.01,2013-01-15 20:28:00,
2013-01-15 15:33:00,29.5,24.1,29.97,West,262,4.7,48.3,80,0.00,,,0.00,VWS V13.01,2013-01-15 20:33:00,
2013-01-15 15:38:00,29.5,24.1,29.97,NW,305,4.0,48.3,80,0.00,,,0.00,VWS V13.01,2013-01-15 20:38:00,
2013-01-15 15:43:00,29.5,24.1,29.97,NW,326,7.4,48.3,80,0.00,,,0.00,VWS V13.01,2013-01-15 20:43:00,
2013-01-15 15:48:00,29.3,23.9,29.97,NW,307,7.4,48.3,80,0.00,,,0.00,VWS V13.01,2013-01-15 20:48:00,
2013-01-15 15:53:00,29.3,23.9,29.97,WNW,295,8.7,48.3,80,0.00,,,0.00,VWS V13.01,2013-01-15 20:53:00,
2013-01-15 15:58:00,29.1,23.7,29.97,WNW,288,5.4,48.3,80,0.00,,,0.00,VWS V13.01,2013-01-15 20:58:00,
2013-01-15 16:03:00,28.9,23.6,29.97,WNW,289,6.0,48.3,80,0.00,,,0.00,VWS V13.01,2013-01-15 21:03:00,
2013-01-15 16:08:00,28.8,23.4,29.97,WNW,303,4.7,48.3,80,0.00,,,0.00,VWS V13.01,2013-01-15 21:08:00,
2013-01-15 16:13:00,28.6,23.2,29.97,WNW,286,5.4,48.3,80,0.00,,,0.00,VWS V13.01,2013-01-15 21:13:00,
2013-01-15 16:18:00,28.6,23.2,29.97,NW,305,8.1,48.3,80,0.00,,,0.00,VWS V13.01,2013-01-15 21:18:00,
2013-01-15 16:23:00,28.6,23.2,29.97,West,276,6.0,48.3,80,0.00,,,0.00,VWS V13.01,2013-01-15 21:23:00,
2013-01-15 16:28:00,28.4,26.4,29.97,NW,312,3.4,48.3,92,0.00,,,0.00,VWS V13.01,2013-01-15 21:28:00,
2013-01-15 16:33:00,28.2,26.2,29.97,NW,314,6.0,48.3,92,0.00,,,0.00,VWS V13.01,2013-01-15 21:33:00,
2013-01-15 16:38:00,28.4,26.4,29.97,WNW,303,4.7,48.3,92,0.00,,,0.00,VWS V13.01,2013-01-15 21:38:00,
2013-01-15 16:44:00,28.2,26.2,29.97,West,260,6.0,48.3,92,0.00,,,0.00,VWS V13.01,2013-01-15 21:44:00,
2013-01-15 16:49:00,28.2,26.2,29.97,WNW,284,4.7,48.3,92,0.00,,,0.00,VWS V13.01,2013-01-15 21:49:00,
2013-01-15 16:54:00,28.0,26.0,29.97,WNW,292,6.0,48.3,92,0.00,,,0.00,VWS V13.01,2013-01-15 21:54:00,
2013-01-15 16:59:00,28.0,26.0,29.97,WNW,303,5.4,48.3,92,0.00,,,0.00,VWS V13.01,2013-01-15 21:59:00,
2013-01-15 17:04:00,28.0,26.0,29.97,West,278,4.7,48.3,92,0.00,,,0.00,VWS V13.01,2013-01-15 22:04:00,
2013-01-15 17:09:00,28.0,26.0,29.97,WNW,302,4.0,48.3,92,0.00,,,0.00,VWS V13.01,2013-01-15 22:09:00,
2013-01-15 17:14:00,28.0,26.0,29.97,WNW,294,5.4,48.3,92,0.00,,,0.00,VWS V13.01,2013-01-15 22:14:00,
2013-01-15 17:19:00,27.9,25.8,29.97,WNW,303,4.7,48.3,92,0.00,,,0.00,VWS V13.01,2013-01-15 22:19:00,
2013-01-15 17:24:00,27.9,25.8,29.94,West,276,3.4,48.3,92,0.00,,,0.00,VWS V13.01,2013-01-15 22:24:00,
2013-01-15 17:29:00,27.9,25.8,29.94,West,275,4.0,48.3,92,0.00,,,0.00,VWS V13.01,2013-01-15 22:29:00,
2013-01-15 17:34:00,27.9,25.8,29.94,WNW,287,4.7,48.3,92,0.00,,,0.00,VWS V13.01,2013-01-15 22:34:00,
2013-01-15 17:39:00,27.9,25.8,29.94,WNW,288,5.4,48.3,92,0.00,,,0.00,VWS V13.01,2013-01-15 22:39:00,
2013-01-15 17:44:00,27.7,25.7,29.94,West,271,6.0,48.3,92,0.00,,,0.00,VWS V13.01,2013-01-15 22:44:00,
2013-01-15 17:49:00,27.3,25.3,29.94,West,281,5.4,48.3,92,0.00,,,0.00,VWS V13.01,2013-01-15 22:49:00,
2013-01-15 17:54:00,27.3,27.3,29.97,WNW,286,4.0,48.3,100,0.00,,,0.00,VWS V13.01,2013-01-15 22:54:00,
2013-01-15 17:59:00,27.5,27.5,29.97,West,260,4.0,48.3,100,0.00,,,0.00,VWS V13.01,2013-01-15 22:59:00,
2013-01-15 18:04:00,27.3,27.3,29.97,WNW,289,5.4,48.3,100,0.00,,,0.00,VWS V13.01,2013-01-15 23:04:00,
2013-01-15 18:09:00,27.5,27.5,29.97,WNW,301,4.7,48.3,100,0.00,,,0.00,VWS V13.01,2013-01-15 23:09:00,
2013-01-15 18:14:00,27.5,27.5,29.97,WNW,290,4.7,48.3,100,0.00,,,0.00,VWS V13.01,2013-01-15 23:14:00,
2013-01-15 18:19:00,27.9,27.9,29.97,NW,306,5.4,48.3,100,0.00,,,0.00,VWS V13.01,2013-01-15 23:19:00,
2013-01-15 18:24:00,28.0,26.0,29.97,West,274,4.0,48.3,92,0.00,,,0.00,VWS V13.01,2013-01-15 23:24:00,
2013-01-15 18:29:00,28.0,26.0,29.97,WNW,285,4.7,48.3,92,0.00,,,0.00,VWS V13.01,2013-01-15 23:29:00,
2013-01-15 18:34:00,28.0,26.0,29.97,NW,321,4.0,48.3,92,0.00,,,0.00,VWS V13.01,2013-01-15 23:34:00,
2013-01-15 18:39:00,28.2,26.2,29.97,NW,311,12.1,48.3,92,0.00,,,0.00,VWS V13.01,2013-01-15 23:39:00,
2013-01-15 18:45:00,28.0,26.0,29.97,WNW,300,6.0,48.3,92,0.00,,,0.00,VWS V13.01,2013-01-15 23:45:00,
2013-01-15 18:50:00,27.9,25.8,29.97,NW,316,10.1,48.3,92,0.00,,,0.00,VWS V13.01,2013-01-15 23:50:00,
2013-01-15 18:55:00,27.9,25.8,29.97,NW,305,9.4,48.3,92,0.00,,,0.00,VWS V13.01,2013-01-15 23:55:00,
2013-01-15 19:00:00,27.7,25.7,29.97,NW,306,9.4,48.3,92,0.00,,,0.00,VWS V13.01,2013-01-16 00:00:00,
2013-01-15 19:05:00,27.9,25.8,29.97,NW,304,6.0,48.3,92,0.00,,,0.00,VWS V13.01,2013-01-16 00:05:00,
2013-01-15 19:10:00,28.0,26.0,29.94,WNW,286,6.0,48.3,92,0.00,,,0.00,VWS V13.01,2013-01-16 00:10:00,
2013-01-15 19:15:00,28.6,26.6,29.94,WNW,301,8.1,48.3,92,0.00,,,0.00,VWS V13.01,2013-01-16 00:15:00,
2013-01-15 19:20:00,28.4,26.4,29.94,WNW,293,8.1,48.3,92,0.00,,,0.00,VWS V13.01,2013-01-16 00:20:00,
2013-01-15 19:25:00,28.4,26.4,29.94,WNW,285,8.1,48.3,92,0.00,,,0.00,VWS V13.01,2013-01-16 00:25:00,
2013-01-15 19:30:00,28.4,26.4,29.94,WNW,283,4.0,48.3,92,0.00,,,0.00,VWS V13.01,2013-01-16 00:30:00,
2013-01-15 19:35:00,28.0,26.0,29.94,WNW,298,8.1,48.3,92,0.00,,,0.00,VWS V13.01,2013-01-16 00:35:00,
2013-01-15 19:40:00,28.0,26.0,29.94,WNW,288,8.1,48.3,92,0.00,,,0.00,VWS V13.01,2013-01-16 00:40:00,
2013-01-15 19:45:00,27.9,25.8,29.94,West,272,6.0,48.3,92,0.00,,,0.00,VWS V13.01,2013-01-16 00:45:00,
2013-01-15 19:50:00,27.7,25.7,29.94,WNW,299,6.0,48.3,92,0.00,,,0.00,VWS V13.01,2013-01-16 00:50:00,
2013-01-15 19:55:00,27.7,25.7,29.94,NW,304,8.7,48.3,92,0.00,,,0.00,VWS V13.01,2013-01-16 00:55:00,
2013-01-15 20:00:00,27.9,25.8,29.94,NW,318,5.4,48.3,92,0.00,,,0.00,VWS V13.01,2013-01-16 01:00:00,
2013-01-15 20:05:00,28.0,26.0,29.94,WNW,299,5.4,48.3,92,0.00,,,0.00,VWS V13.01,2013-01-16 01:05:00,
2013-01-15 20:10:00,28.4,26.4,29.94,NW,324,4.7,48.3,92,0.00,,,0.00,VWS V13.01,2013-01-16 01:10:00,
2013-01-15 20:15:00,27.9,25.8,29.94,West,278,7.4,48.3,92,0.00,,,0.00,VWS V13.01,2013-01-16 01:15:00,
2013-01-15 20:20:00,27.9,25.8,29.94,NNW,327,6.0,48.3,92,0.00,,,0.00,VWS V13.01,2013-01-16 01:20:00,
2013-01-15 20:25:00,27.5,25.5,29.94,NW,317,6.0,48.3,92,0.00,,,0.00,VWS V13.01,2013-01-16 01:25:00,
2013-01-15 20:31:00,27.5,25.5,29.94,NW,314,6.0,48.3,92,0.00,,,0.00,VWS V13.01,2013-01-16 01:31:00,
2013-01-15 20:36:00,27.3,25.3,29.94,WNW,303,4.7,48.3,92,0.00,,,0.00,VWS V13.01,2013-01-16 01:36:00,
2013-01-15 20:41:00,27.0,25.0,29.94,NW,324,6.0,48.3,92,0.00,,,0.00,VWS V13.01,2013-01-16 01:41:00,
2013-01-15 20:46:00,26.8,26.8,29.94,WNW,303,6.0,48.3,100,0.00,,,0.00,VWS V13.01,2013-01-16 01:46:00,
2013-01-15 20:51:00,26.6,26.6,29.94,NW,313,4.0,48.3,100,0.00,,,0.00,VWS V13.01,2013-01-16 01:51:00,
2013-01-15 20:56:00,26.4,26.4,29.94,NW,316,4.7,48.3,100,0.00,,,0.00,VWS V13.01,2013-01-16 01:56:00,
2013-01-15 21:01:00,26.4,26.4,29.94,NW,322,7.4,48.3,100,0.00,,,0.00,VWS V13.01,2013-01-16 02:01:00,
2013-01-15 21:06:00,26.1,26.1,29.94,NW,317,6.0,48.3,100,0.00,,,0.00,VWS V13.01,2013-01-16 02:06:00,
2013-01-15 21:11:00,25.9,25.9,29.94,NW,309,6.0,48.3,100,0.00,,,0.00,VWS V13.01,2013-01-16 02:11:00,
2013-01-15 21:16:00,26.1,26.1,29.94,NW,323,5.4,48.3,100,0.00,,,0.00,VWS V13.01,2013-01-16 02:16:00,
2013-01-15 21:21:00,26.2,26.2,29.94,NNW,327,7.4,48.3,100,0.00,,,0.00,VWS V13.01,2013-01-16 02:21:00,
2013-01-15 21:26:00,26.1,26.1,29.91,NW,308,5.4,48.3,100,0.00,,,0.00,VWS V13.01,2013-01-16 02:26:00,
2013-01-15 21:31:00,25.9,25.9,29.91,NW,310,6.0,48.3,100,0.00,,,0.00,VWS V13.01,2013-01-16 02:31:00,
2013-01-15 21:36:00,25.9,25.9,29.91,North,357,6.0,48.3,100,0.00,,,0.00,VWS V13.01,2013-01-16 02:36:00,
2013-01-15 21:41:00,25.7,25.7,29.91,NW,314,5.4,48.3,100,0.00,,,0.00,VWS V13.01,2013-01-16 02:41:00,
2013-01-15 21:46:00,25.7,25.7,29.91,NNW,335,8.7,48.3,100,0.00,,,0.00,VWS V13.01,2013-01-16 02:46:00,
2013-01-15 21:51:00,25.3,25.3,29.91,NW,319,5.4,48.3,100,0.00,,,0.00,VWS V13.01,2013-01-16 02:51:00,
2013-01-15 21:56:00,25.0,25.0,29.91,NNW,334,0.0,48.3,100,0.00,,,0.00,VWS V13.01,2013-01-16 02:56:00,
2013-01-15 22:02:00,25.3,25.3,29.91,NNW,340,4.7,48.3,100,0.00,,,0.00,VWS V13.01,2013-01-16 03:02:00,
2013-01-15 22:07:00,25.0,25.0,29.91,North,357,0.0,48.3,100,0.00,,,0.00,VWS V13.01,2013-01-16 03:07:00,
2013-01-15 22:12:00,25.0,25.0,29.91,North,353,5.4,48.3,100,0.00,,,0.00,VWS V13.01,2013-01-16 03:12:00,
2013-01-15 22:17:00,24.8,24.8,29.91,NW,321,5.4,48.3,100,0.00,,,0.00,VWS V13.01,2013-01-16 03:17:00,
2013-01-15 22:22:00,24.8,24.8,29.91,North,353,3.4,48.3,100,0.00,,,0.00,VWS V13.01,2013-01-16 03:22:00,
2013-01-15 22:27:00,24.6,24.6,29.91,North,8,6.0,48.3,100,0.00,,,0.00,VWS V13.01,2013-01-16 03:27:00,
2013-01-15 22:32:00,25.0,25.0,29.91,NNW,337,5.4,48.3,100,0.00,,,0.00,VWS V13.01,2013-01-16 03:32:00,
2013-01-15 22:37:00,25.3,25.3,29.91,NW,322,4.0,48.3,100,0.00,,,0.00,VWS V13.01,2013-01-16 03:37:00,
2013-01-15 22:42:00,25.0,25.0,29.91,NNW,330,0.0,48.3,100,0.00,,,0.00,VWS V13.01,2013-01-16 03:42:00,
2013-01-15 22:47:00,25.0,25.0,29.91,North,350,6.0,48.3,100,0.00,,,0.00,VWS V13.01,2013-01-16 03:47:00,
2013-01-15 22:52:00,25.5,25.5,29.91,NW,311,8.7,48.3,100,0.00,,,0.00,VWS V13.01,2013-01-16 03:52:00,
2013-01-15 22:57:00,25.0,25.0,29.94,NNW,339,3.4,48.3,100,0.00,,,0.00,VWS V13.01,2013-01-16 03:57:00,
2013-01-15 23:02:00,25.0,25.0,29.94,NW,316,6.0,48.3,100,0.00,,,0.00,VWS V13.01,2013-01-16 04:02:00,
2013-01-15 23:07:00,25.0,25.0,29.94,NW,308,4.0,48.3,100,0.00,,,0.00,VWS V13.01,2013-01-16 04:07:00,
2013-01-15 23:12:00,24.6,24.6,29.91,North,353,5.4,48.3,100,0.00,,,0.00,VWS V13.01,2013-01-16 04:12:00,
2013-01-15 23:17:00,24.8,24.8,29.91,NW,321,4.0,48.3,100,0.00,,,0.00,VWS V13.01,2013-01-16 04:17:00,
2013-01-15 23:23:00,24.4,24.4,29.91,NNW,340,3.4,48.3,100,0.00,,,0.00,VWS V13.01,2013-01-16 04:23:00,
2013-01-15 23:28:00,24.1,24.1,29.94,NW,307,4.7,48.3,100,0.00,,,0.00,VWS V13.01,2013-01-16 04:28:00,
2013-01-15 23:33:00,23.7,23.7,29.94,WNW,300,0.0,48.3,100,0.00,,,0.00,VWS V13.01,2013-01-16 04:33:00,
2013-01-15 23:38:00,23.5,23.5,29.94,NW,318,4.7,48.3,100,0.00,,,0.00,VWS V13.01,2013-01-16 04:38:00,
2013-01-15 23:43:00,23.5,23.5,29.91,NW,313,0.0,48.3,100,0.00,,,0.00,VWS V13.01,2013-01-16 04:43:00,
2013-01-15 23:48:00,23.0,23.0,29.91,NW,316,0.0,48.3,100,0.00,,,0.00,VWS V13.01,2013-01-16 04:48:00,
2013-01-15 23:53:00,22.5,22.5,29.91,NW,316,0.0,48.3,100,0.00,,,0.00,VWS V13.01,2013-01-16 04:53:00,
2013-01-15 23:58:00,22.5,22.5,29.91,WNW,302,0.0,48.3,100,0.00,,,0.00,VWS V13.01,2013-01-16 04:58:00,